sensor_id;sensor_type;location;lat;lon;timestamp;P1;durP1;ratioP1;P2;durP2;ratioP2
9364;SDS011;4722;49.340;9.800;2024-01-30T00:01:55;7.97;;;5.38;;
9364;SDS011;4722;49.340;9.800;2024-01-30T00:04:21;8.02;;;5.07;;
9364;SDS011;4722;49.340;9.800;2024-01-30T00:06:47;8.32;;;4.93;;
9364;SDS011;4722;49.340;9.800;2024-01-30T00:09:13;7.72;;;5.18;;
9364;SDS011;4722;49.340;9.800;2024-01-30T00:11:40;8.80;;;5.50;;
9364;SDS011;4722;49.340;9.800;2024-01-30T00:14:06;14.57;;;7.10;;
9364;SDS011;4722;49.340;9.800;2024-01-30T00:16:32;11.40;;;6.70;;
9364;SDS011;4722;49.340;9.800;2024-01-30T00:18:58;9.55;;;5.80;;
9364;SDS011;4722;49.340;9.800;2024-01-30T00:21:23;8.82;;;5.45;;
9364;SDS011;4722;49.340;9.800;2024-01-30T00:23:49;11.48;;;5.10;;
9364;SDS011;4722;49.340;9.800;2024-01-30T00:26:15;12.95;;;7.38;;
9364;SDS011;4722;49.340;9.800;2024-01-30T00:28:41;13.50;;;5.88;;
9364;SDS011;4722;49.340;9.800;2024-01-30T00:31:07;11.05;;;5.32;;
9364;SDS011;4722;49.340;9.800;2024-01-30T00:33:37;12.75;;;6.68;;
9364;SDS011;4722;49.340;9.800;2024-01-30T00:36:03;12.82;;;6.43;;
9364;SDS011;4722;49.340;9.800;2024-01-30T00:38:29;10.25;;;6.10;;
9364;SDS011;4722;49.340;9.800;2024-01-30T00:40:55;12.15;;;5.50;;
9364;SDS011;4722;49.340;9.800;2024-01-30T00:43:21;11.10;;;4.65;;
9364;SDS011;4722;49.340;9.800;2024-01-30T00:45:47;10.95;;;6.07;;
9364;SDS011;4722;49.340;9.800;2024-01-30T00:48:13;12.10;;;5.65;;
9364;SDS011;4722;49.340;9.800;2024-01-30T00:50:39;12.82;;;5.07;;
9364;SDS011;4722;49.340;9.800;2024-01-30T00:53:04;9.27;;;5.25;;
9364;SDS011;4722;49.340;9.800;2024-01-30T00:55:31;15.15;;;7.35;;
9364;SDS011;4722;49.340;9.800;2024-01-30T00:57:56;15.43;;;6.22;;
9364;SDS011;4722;49.340;9.800;2024-01-30T01:00:22;7.68;;;4.72;;
9364;SDS011;4722;49.340;9.800;2024-01-30T01:02:53;17.15;;;6.45;;
9364;SDS011;4722;49.340;9.800;2024-01-30T01:05:20;12.80;;;6.63;;
9364;SDS011;4722;49.340;9.800;2024-01-30T01:07:45;11.70;;;5.47;;
9364;SDS011;4722;49.340;9.800;2024-01-30T01:10:13;5.82;;;3.85;;
9364;SDS011;4722;49.340;9.800;2024-01-30T01:12:39;9.23;;;5.00;;
9364;SDS011;4722;49.340;9.800;2024-01-30T01:15:05;11.25;;;5.40;;
9364;SDS011;4722;49.340;9.800;2024-01-30T01:17:34;18.27;;;5.65;;
9364;SDS011;4722;49.340;9.800;2024-01-30T01:20:00;11.88;;;6.07;;
9364;SDS011;4722;49.340;9.800;2024-01-30T01:22:26;8.18;;;4.70;;
9364;SDS011;4722;49.340;9.800;2024-01-30T01:24:52;14.45;;;5.50;;
9364;SDS011;4722;49.340;9.800;2024-01-30T01:27:18;10.40;;;6.00;;
9364;SDS011;4722;49.340;9.800;2024-01-30T01:29:44;20.00;;;5.95;;
9364;SDS011;4722;49.340;9.800;2024-01-30T01:32:10;13.52;;;6.45;;
9364;SDS011;4722;49.340;9.800;2024-01-30T01:34:36;19.60;;;7.00;;
9364;SDS011;4722;49.340;9.800;2024-01-30T01:37:02;12.43;;;5.70;;
9364;SDS011;4722;49.340;9.800;2024-01-30T01:39:28;11.13;;;7.00;;
9364;SDS011;4722;49.340;9.800;2024-01-30T01:41:54;15.02;;;7.00;;
9364;SDS011;4722;49.340;9.800;2024-01-30T01:44:20;14.48;;;6.75;;
9364;SDS011;4722;49.340;9.800;2024-01-30T01:46:46;10.18;;;5.30;;
9364;SDS011;4722;49.340;9.800;2024-01-30T01:49:13;14.07;;;5.60;;
9364;SDS011;4722;49.340;9.800;2024-01-30T01:51:39;16.08;;;6.82;;
9364;SDS011;4722;49.340;9.800;2024-01-30T01:54:07;6.78;;;4.80;;
9364;SDS011;4722;49.340;9.800;2024-01-30T01:56:33;15.13;;;6.78;;
9364;SDS011;4722;49.340;9.800;2024-01-30T01:59:03;9.55;;;6.50;;
9364;SDS011;4722;49.340;9.800;2024-01-30T02:01:30;9.82;;;5.85;;
9364;SDS011;4722;49.340;9.800;2024-01-30T02:03:56;11.85;;;6.78;;
9364;SDS011;4722;49.340;9.800;2024-01-30T02:06:22;12.63;;;7.20;;
9364;SDS011;4722;49.340;9.800;2024-01-30T02:08:48;14.00;;;6.07;;
9364;SDS011;4722;49.340;9.800;2024-01-30T02:11:14;11.07;;;5.07;;
9364;SDS011;4722;49.340;9.800;2024-01-30T02:13:41;14.32;;;6.90;;
9364;SDS011;4722;49.340;9.800;2024-01-30T02:16:07;15.68;;;5.40;;
9364;SDS011;4722;49.340;9.800;2024-01-30T02:18:33;15.23;;;6.25;;
9364;SDS011;4722;49.340;9.800;2024-01-30T02:21:04;9.80;;;6.70;;
9364;SDS011;4722;49.340;9.800;2024-01-30T02:23:30;11.00;;;6.40;;
9364;SDS011;4722;49.340;9.800;2024-01-30T02:25:56;11.95;;;5.57;;
9364;SDS011;4722;49.340;9.800;2024-01-30T02:28:22;20.33;;;6.88;;
9364;SDS011;4722;49.340;9.800;2024-01-30T02:30:48;15.48;;;7.40;;
9364;SDS011;4722;49.340;9.800;2024-01-30T02:33:14;10.77;;;6.38;;
9364;SDS011;4722;49.340;9.800;2024-01-30T02:35:40;13.43;;;6.68;;
9364;SDS011;4722;49.340;9.800;2024-01-30T02:38:06;14.25;;;6.45;;
9364;SDS011;4722;49.340;9.800;2024-01-30T02:40:32;18.00;;;8.82;;
9364;SDS011;4722;49.340;9.800;2024-01-30T02:42:58;15.63;;;6.88;;
9364;SDS011;4722;49.340;9.800;2024-01-30T02:45:25;11.15;;;6.07;;
9364;SDS011;4722;49.340;9.800;2024-01-30T02:47:51;9.13;;;5.68;;
9364;SDS011;4722;49.340;9.800;2024-01-30T02:50:17;11.52;;;6.20;;
9364;SDS011;4722;49.340;9.800;2024-01-30T02:52:43;15.93;;;7.65;;
9364;SDS011;4722;49.340;9.800;2024-01-30T02:55:09;14.60;;;7.93;;
9364;SDS011;4722;49.340;9.800;2024-01-30T02:57:35;12.25;;;7.05;;
9364;SDS011;4722;49.340;9.800;2024-01-30T03:00:02;14.25;;;6.25;;
9364;SDS011;4722;49.340;9.800;2024-01-30T03:02:30;14.85;;;6.95;;
9364;SDS011;4722;49.340;9.800;2024-01-30T03:04:56;19.90;;;8.38;;
9364;SDS011;4722;49.340;9.800;2024-01-30T03:07:22;16.63;;;6.93;;
9364;SDS011;4722;49.340;9.800;2024-01-30T03:09:48;16.25;;;7.15;;
9364;SDS011;4722;49.340;9.800;2024-01-30T03:12:14;19.15;;;8.30;;
9364;SDS011;4722;49.340;9.800;2024-01-30T03:14:40;16.70;;;7.57;;
9364;SDS011;4722;49.340;9.800;2024-01-30T03:17:06;14.82;;;5.85;;
9364;SDS011;4722;49.340;9.800;2024-01-30T03:19:32;21.25;;;6.88;;
9364;SDS011;4722;49.340;9.800;2024-01-30T03:21:58;11.52;;;7.00;;
9364;SDS011;4722;49.340;9.800;2024-01-30T03:24:25;16.23;;;6.65;;
9364;SDS011;4722;49.340;9.800;2024-01-30T03:26:51;11.30;;;6.32;;
9364;SDS011;4722;49.340;9.800;2024-01-30T03:29:17;16.70;;;8.13;;
9364;SDS011;4722;49.340;9.800;2024-01-30T03:31:43;12.52;;;6.22;;
9364;SDS011;4722;49.340;9.800;2024-01-30T03:34:09;8.90;;;6.20;;
9364;SDS011;4722;49.340;9.800;2024-01-30T03:36:34;10.55;;;5.95;;
9364;SDS011;4722;49.340;9.800;2024-01-30T03:39:01;10.15;;;6.43;;
9364;SDS011;4722;49.340;9.800;2024-01-30T03:41:27;11.85;;;7.18;;
9364;SDS011;4722;49.340;9.800;2024-01-30T03:43:53;11.13;;;6.07;;
9364;SDS011;4722;49.340;9.800;2024-01-30T03:46:19;10.60;;;5.97;;
9364;SDS011;4722;49.340;9.800;2024-01-30T03:48:45;13.80;;;5.40;;
9364;SDS011;4722;49.340;9.800;2024-01-30T03:51:11;14.70;;;6.93;;
9364;SDS011;4722;49.340;9.800;2024-01-30T03:53:39;11.50;;;6.90;;
9364;SDS011;4722;49.340;9.800;2024-01-30T03:56:06;17.08;;;6.80;;
9364;SDS011;4722;49.340;9.800;2024-01-30T03:58:32;11.63;;;6.88;;
9364;SDS011;4722;49.340;9.800;2024-01-30T04:00:58;23.13;;;7.18;;
9364;SDS011;4722;49.340;9.800;2024-01-30T04:03:24;11.25;;;6.88;;
9364;SDS011;4722;49.340;9.800;2024-01-30T04:05:51;13.98;;;7.28;;
9364;SDS011;4722;49.340;9.800;2024-01-30T04:08:17;20.02;;;7.65;;
9364;SDS011;4722;49.340;9.800;2024-01-30T04:10:43;18.98;;;7.80;;
9364;SDS011;4722;49.340;9.800;2024-01-30T04:13:09;12.95;;;7.13;;
9364;SDS011;4722;49.340;9.800;2024-01-30T04:15:35;13.43;;;7.72;;
9364;SDS011;4722;49.340;9.800;2024-01-30T04:18:01;15.43;;;7.60;;
9364;SDS011;4722;49.340;9.800;2024-01-30T04:20:27;18.42;;;7.82;;
9364;SDS011;4722;49.340;9.800;2024-01-30T04:22:53;18.35;;;7.22;;
9364;SDS011;4722;49.340;9.800;2024-01-30T04:25:19;20.10;;;6.80;;
9364;SDS011;4722;49.340;9.800;2024-01-30T04:27:45;14.60;;;7.20;;
9364;SDS011;4722;49.340;9.800;2024-01-30T04:30:11;12.68;;;6.57;;
9364;SDS011;4722;49.340;9.800;2024-01-30T04:32:37;12.57;;;6.40;;
9364;SDS011;4722;49.340;9.800;2024-01-30T04:35:03;16.95;;;6.78;;
9364;SDS011;4722;49.340;9.800;2024-01-30T04:37:29;11.30;;;5.55;;
9364;SDS011;4722;49.340;9.800;2024-01-30T04:39:56;13.85;;;6.30;;
9364;SDS011;4722;49.340;9.800;2024-01-30T04:42:22;13.43;;;6.95;;
9364;SDS011;4722;49.340;9.800;2024-01-30T04:44:48;11.95;;;7.07;;
9364;SDS011;4722;49.340;9.800;2024-01-30T04:47:14;10.80;;;6.68;;
9364;SDS011;4722;49.340;9.800;2024-01-30T04:49:40;14.23;;;5.38;;
9364;SDS011;4722;49.340;9.800;2024-01-30T04:52:07;13.55;;;7.43;;
9364;SDS011;4722;49.340;9.800;2024-01-30T04:54:33;17.77;;;6.60;;
9364;SDS011;4722;49.340;9.800;2024-01-30T04:56:59;18.10;;;5.60;;
9364;SDS011;4722;49.340;9.800;2024-01-30T04:59:25;9.48;;;5.65;;
9364;SDS011;4722;49.340;9.800;2024-01-30T05:01:51;12.27;;;6.60;;
9364;SDS011;4722;49.340;9.800;2024-01-30T05:04:17;12.00;;;6.20;;
9364;SDS011;4722;49.340;9.800;2024-01-30T05:06:43;10.23;;;5.50;;
9364;SDS011;4722;49.340;9.800;2024-01-30T05:09:09;12.77;;;7.05;;
9364;SDS011;4722;49.340;9.800;2024-01-30T05:11:38;20.85;;;7.82;;
9364;SDS011;4722;49.340;9.800;2024-01-30T05:14:05;12.10;;;6.32;;
9364;SDS011;4722;49.340;9.800;2024-01-30T05:16:31;18.88;;;6.32;;
9364;SDS011;4722;49.340;9.800;2024-01-30T05:18:57;17.55;;;6.55;;
9364;SDS011;4722;49.340;9.800;2024-01-30T05:21:23;14.18;;;5.82;;
9364;SDS011;4722;49.340;9.800;2024-01-30T05:23:49;10.63;;;6.00;;
9364;SDS011;4722;49.340;9.800;2024-01-30T05:26:15;11.55;;;6.35;;
9364;SDS011;4722;49.340;9.800;2024-01-30T05:28:41;9.70;;;6.15;;
9364;SDS011;4722;49.340;9.800;2024-01-30T05:31:09;13.50;;;6.55;;
9364;SDS011;4722;49.340;9.800;2024-01-30T05:33:35;11.98;;;7.00;;
9364;SDS011;4722;49.340;9.800;2024-01-30T05:36:01;10.80;;;5.68;;
9364;SDS011;4722;49.340;9.800;2024-01-30T05:38:27;14.82;;;6.95;;
9364;SDS011;4722;49.340;9.800;2024-01-30T05:40:53;10.55;;;5.68;;
9364;SDS011;4722;49.340;9.800;2024-01-30T05:43:19;12.88;;;6.80;;
9364;SDS011;4722;49.340;9.800;2024-01-30T05:45:45;6.03;;;4.63;;
9364;SDS011;4722;49.340;9.800;2024-01-30T05:48:11;13.98;;;7.72;;
9364;SDS011;4722;49.340;9.800;2024-01-30T05:50:37;12.43;;;5.90;;
9364;SDS011;4722;49.340;9.800;2024-01-30T05:53:03;11.50;;;5.63;;
9364;SDS011;4722;49.340;9.800;2024-01-30T05:55:28;13.23;;;7.45;;
9364;SDS011;4722;49.340;9.800;2024-01-30T05:57:54;10.80;;;6.10;;
9364;SDS011;4722;49.340;9.800;2024-01-30T06:00:20;15.55;;;6.82;;
9364;SDS011;4722;49.340;9.800;2024-01-30T06:02:46;16.88;;;7.57;;
9364;SDS011;4722;49.340;9.800;2024-01-30T06:05:12;11.90;;;6.00;;
9364;SDS011;4722;49.340;9.800;2024-01-30T06:07:38;15.43;;;6.15;;
9364;SDS011;4722;49.340;9.800;2024-01-30T06:10:04;9.60;;;5.07;;
9364;SDS011;4722;49.340;9.800;2024-01-30T06:12:31;13.80;;;6.95;;
9364;SDS011;4722;49.340;9.800;2024-01-30T06:14:58;11.75;;;6.80;;
9364;SDS011;4722;49.340;9.800;2024-01-30T06:17:24;10.40;;;6.15;;
9364;SDS011;4722;49.340;9.800;2024-01-30T06:19:49;17.95;;;7.93;;
9364;SDS011;4722;49.340;9.800;2024-01-30T06:22:15;10.68;;;5.95;;
9364;SDS011;4722;49.340;9.800;2024-01-30T06:24:41;11.43;;;6.57;;
9364;SDS011;4722;49.340;9.800;2024-01-30T06:27:09;13.18;;;7.25;;
9364;SDS011;4722;49.340;9.800;2024-01-30T06:29:35;14.20;;;7.95;;
9364;SDS011;4722;49.340;9.800;2024-01-30T06:32:01;13.02;;;7.97;;
9364;SDS011;4722;49.340;9.800;2024-01-30T06:34:28;17.27;;;8.40;;
9364;SDS011;4722;49.340;9.800;2024-01-30T06:36:53;10.75;;;6.50;;
9364;SDS011;4722;49.340;9.800;2024-01-30T06:39:19;14.85;;;8.55;;
9364;SDS011;4722;49.340;9.800;2024-01-30T06:41:45;10.77;;;6.20;;
9364;SDS011;4722;49.340;9.800;2024-01-30T06:44:11;12.32;;;7.38;;
9364;SDS011;4722;49.340;9.800;2024-01-30T06:46:38;9.40;;;6.10;;
9364;SDS011;4722;49.340;9.800;2024-01-30T06:49:04;7.95;;;5.28;;
9364;SDS011;4722;49.340;9.800;2024-01-30T06:51:31;12.15;;;6.13;;
9364;SDS011;4722;49.340;9.800;2024-01-30T06:53:57;13.00;;;7.75;;
9364;SDS011;4722;49.340;9.800;2024-01-30T06:56:23;18.60;;;5.80;;
9364;SDS011;4722;49.340;9.800;2024-01-30T06:58:49;20.70;;;7.65;;
9364;SDS011;4722;49.340;9.800;2024-01-30T07:01:15;9.60;;;6.32;;
9364;SDS011;4722;49.340;9.800;2024-01-30T07:03:41;12.77;;;7.30;;
9364;SDS011;4722;49.340;9.800;2024-01-30T07:06:08;15.32;;;7.10;;
9364;SDS011;4722;49.340;9.800;2024-01-30T07:08:34;13.27;;;6.40;;
9364;SDS011;4722;49.340;9.800;2024-01-30T07:11:00;13.90;;;7.85;;
9364;SDS011;4722;49.340;9.800;2024-01-30T07:13:27;16.13;;;7.88;;
9364;SDS011;4722;49.340;9.800;2024-01-30T07:15:53;15.75;;;8.50;;
9364;SDS011;4722;49.340;9.800;2024-01-30T07:18:19;11.40;;;7.47;;
9364;SDS011;4722;49.340;9.800;2024-01-30T07:20:45;13.20;;;6.93;;
9364;SDS011;4722;49.340;9.800;2024-01-30T07:23:12;14.75;;;10.02;;
9364;SDS011;4722;49.340;9.800;2024-01-30T07:25:41;16.30;;;9.15;;
9364;SDS011;4722;49.340;9.800;2024-01-30T07:28:07;12.88;;;7.47;;
9364;SDS011;4722;49.340;9.800;2024-01-30T07:30:37;13.90;;;8.88;;
9364;SDS011;4722;49.340;9.800;2024-01-30T07:33:03;12.95;;;6.85;;
9364;SDS011;4722;49.340;9.800;2024-01-30T07:35:29;13.68;;;7.07;;
9364;SDS011;4722;49.340;9.800;2024-01-30T07:37:56;12.32;;;7.13;;
9364;SDS011;4722;49.340;9.800;2024-01-30T07:40:22;13.95;;;7.78;;
9364;SDS011;4722;49.340;9.800;2024-01-30T07:42:48;13.10;;;7.70;;
9364;SDS011;4722;49.340;9.800;2024-01-30T07:45:14;12.13;;;6.95;;
9364;SDS011;4722;49.340;9.800;2024-01-30T07:47:41;14.88;;;7.15;;
9364;SDS011;4722;49.340;9.800;2024-01-30T07:50:07;13.07;;;7.22;;
9364;SDS011;4722;49.340;9.800;2024-01-30T07:52:33;14.73;;;7.60;;
9364;SDS011;4722;49.340;9.800;2024-01-30T07:54:59;14.40;;;7.00;;
9364;SDS011;4722;49.340;9.800;2024-01-30T07:57:25;14.40;;;6.90;;
9364;SDS011;4722;49.340;9.800;2024-01-30T07:59:51;12.27;;;7.72;;
9364;SDS011;4722;49.340;9.800;2024-01-30T08:02:17;11.98;;;7.70;;
9364;SDS011;4722;49.340;9.800;2024-01-30T08:04:43;17.50;;;8.77;;
9364;SDS011;4722;49.340;9.800;2024-01-30T08:07:13;15.57;;;7.75;;
9364;SDS011;4722;49.340;9.800;2024-01-30T08:09:39;15.45;;;6.82;;
9364;SDS011;4722;49.340;9.800;2024-01-30T08:12:05;14.80;;;6.50;;
9364;SDS011;4722;49.340;9.800;2024-01-30T08:14:31;12.88;;;7.35;;
9364;SDS011;4722;49.340;9.800;2024-01-30T08:16:57;12.77;;;7.95;;
9364;SDS011;4722;49.340;9.800;2024-01-30T08:19:23;13.98;;;8.45;;
9364;SDS011;4722;49.340;9.800;2024-01-30T08:21:49;20.95;;;9.80;;
9364;SDS011;4722;49.340;9.800;2024-01-30T08:24:15;23.00;;;9.93;;
9364;SDS011;4722;49.340;9.800;2024-01-30T08:26:41;17.60;;;8.88;;
9364;SDS011;4722;49.340;9.800;2024-01-30T08:29:07;22.80;;;8.77;;
9364;SDS011;4722;49.340;9.800;2024-01-30T08:31:33;21.25;;;9.55;;
9364;SDS011;4722;49.340;9.800;2024-01-30T08:33:59;19.42;;;10.18;;
9364;SDS011;4722;49.340;9.800;2024-01-30T08:36:25;17.35;;;9.27;;
9364;SDS011;4722;49.340;9.800;2024-01-30T08:38:51;19.27;;;9.15;;
9364;SDS011;4722;49.340;9.800;2024-01-30T08:41:17;33.72;;;14.57;;
9364;SDS011;4722;49.340;9.800;2024-01-30T08:43:43;30.88;;;13.63;;
9364;SDS011;4722;49.340;9.800;2024-01-30T08:46:10;25.55;;;10.48;;
9364;SDS011;4722;49.340;9.800;2024-01-30T08:48:36;29.23;;;13.70;;
9364;SDS011;4722;49.340;9.800;2024-01-30T08:51:02;31.10;;;14.40;;
9364;SDS011;4722;49.340;9.800;2024-01-30T08:53:28;33.42;;;14.73;;
9364;SDS011;4722;49.340;9.800;2024-01-30T08:55:54;35.15;;;13.63;;
9364;SDS011;4722;49.340;9.800;2024-01-30T08:58:20;27.25;;;12.75;;
9364;SDS011;4722;49.340;9.800;2024-01-30T09:00:46;35.25;;;17.02;;
9364;SDS011;4722;49.340;9.800;2024-01-30T09:03:12;35.50;;;18.38;;
9364;SDS011;4722;49.340;9.800;2024-01-30T09:05:38;40.25;;;18.27;;
9364;SDS011;4722;49.340;9.800;2024-01-30T09:08:04;31.70;;;15.45;;
9364;SDS011;4722;49.340;9.800;2024-01-30T09:10:30;28.77;;;13.40;;
9364;SDS011;4722;49.340;9.800;2024-01-30T09:12:56;23.77;;;13.75;;
9364;SDS011;4722;49.340;9.800;2024-01-30T09:15:21;25.42;;;12.98;;
9364;SDS011;4722;49.340;9.800;2024-01-30T09:17:47;22.77;;;11.70;;
9364;SDS011;4722;49.340;9.800;2024-01-30T09:20:13;26.35;;;10.85;;
9364;SDS011;4722;49.340;9.800;2024-01-30T09:22:39;20.20;;;11.30;;
9364;SDS011;4722;49.340;9.800;2024-01-30T09:25:05;19.60;;;10.20;;
9364;SDS011;4722;49.340;9.800;2024-01-30T09:27:31;18.00;;;10.57;;
9364;SDS011;4722;49.340;9.800;2024-01-30T09:29:57;22.55;;;10.48;;
9364;SDS011;4722;49.340;9.800;2024-01-30T09:32:23;18.15;;;9.40;;
9364;SDS011;4722;49.340;9.800;2024-01-30T09:34:49;27.40;;;11.02;;
9364;SDS011;4722;49.340;9.800;2024-01-30T09:37:15;17.85;;;9.45;;
9364;SDS011;4722;49.340;9.800;2024-01-30T09:39:43;20.30;;;10.30;;
9364;SDS011;4722;49.340;9.800;2024-01-30T09:42:17;21.35;;;9.65;;
9364;SDS011;4722;49.340;9.800;2024-01-30T09:44:43;20.85;;;10.52;;
9364;SDS011;4722;49.340;9.800;2024-01-30T09:47:09;17.42;;;10.60;;
9364;SDS011;4722;49.340;9.800;2024-01-30T09:49:35;14.60;;;8.50;;
9364;SDS011;4722;49.340;9.800;2024-01-30T09:52:02;17.63;;;9.13;;
9364;SDS011;4722;49.340;9.800;2024-01-30T09:54:29;18.65;;;9.27;;
9364;SDS011;4722;49.340;9.800;2024-01-30T09:56:56;13.77;;;7.13;;
9364;SDS011;4722;49.340;9.800;2024-01-30T09:59:22;15.27;;;8.18;;
9364;SDS011;4722;49.340;9.800;2024-01-30T10:01:48;20.27;;;7.55;;
9364;SDS011;4722;49.340;9.800;2024-01-30T10:04:15;14.65;;;6.90;;
9364;SDS011;4722;49.340;9.800;2024-01-30T10:06:41;15.10;;;7.55;;
9364;SDS011;4722;49.340;9.800;2024-01-30T10:09:07;15.70;;;6.43;;
9364;SDS011;4722;49.340;9.800;2024-01-30T10:11:36;11.30;;;6.13;;
9364;SDS011;4722;49.340;9.800;2024-01-30T10:14:02;15.55;;;6.55;;
9364;SDS011;4722;49.340;9.800;2024-01-30T10:16:28;12.18;;;5.85;;
9364;SDS011;4722;49.340;9.800;2024-01-30T10:18:54;12.18;;;5.32;;
9364;SDS011;4722;49.340;9.800;2024-01-30T10:21:20;11.73;;;6.60;;
9364;SDS011;4722;49.340;9.800;2024-01-30T10:23:46;12.35;;;6.07;;
9364;SDS011;4722;49.340;9.800;2024-01-30T10:26:13;12.07;;;6.03;;
9364;SDS011;4722;49.340;9.800;2024-01-30T10:28:39;14.15;;;6.68;;
9364;SDS011;4722;49.340;9.800;2024-01-30T10:31:05;9.27;;;6.15;;
9364;SDS011;4722;49.340;9.800;2024-01-30T10:33:31;8.65;;;5.15;;
9364;SDS011;4722;49.340;9.800;2024-01-30T10:36:00;10.02;;;5.32;;
9364;SDS011;4722;49.340;9.800;2024-01-30T10:38:28;9.20;;;5.65;;
9364;SDS011;4722;49.340;9.800;2024-01-30T10:40:56;11.30;;;5.93;;
9364;SDS011;4722;49.340;9.800;2024-01-30T10:43:22;9.43;;;5.20;;
9364;SDS011;4722;49.340;9.800;2024-01-30T10:45:49;10.05;;;5.43;;
9364;SDS011;4722;49.340;9.800;2024-01-30T10:48:15;11.27;;;5.70;;
9364;SDS011;4722;49.340;9.800;2024-01-30T10:50:43;9.07;;;5.05;;
9364;SDS011;4722;49.340;9.800;2024-01-30T10:53:11;11.10;;;5.25;;
9364;SDS011;4722;49.340;9.800;2024-01-30T10:55:38;8.68;;;5.60;;
9364;SDS011;4722;49.340;9.800;2024-01-30T10:58:04;10.30;;;4.85;;
9364;SDS011;4722;49.340;9.800;2024-01-30T11:00:30;12.60;;;5.50;;
9364;SDS011;4722;49.340;9.800;2024-01-30T11:02:58;11.93;;;5.35;;
9364;SDS011;4722;49.340;9.800;2024-01-30T11:05:24;14.88;;;5.28;;
9364;SDS011;4722;49.340;9.800;2024-01-30T11:07:53;10.95;;;5.63;;
9364;SDS011;4722;49.340;9.800;2024-01-30T11:10:18;8.68;;;5.22;;
9364;SDS011;4722;49.340;9.800;2024-01-30T11:12:45;10.80;;;5.40;;
9364;SDS011;4722;49.340;9.800;2024-01-30T11:15:13;8.32;;;5.32;;
9364;SDS011;4722;49.340;9.800;2024-01-30T11:20:21;11.35;;;5.30;;
9364;SDS011;4722;49.340;9.800;2024-01-30T11:22:50;10.90;;;5.40;;
9364;SDS011;4722;49.340;9.800;2024-01-30T11:25:17;12.32;;;6.05;;
9364;SDS011;4722;49.340;9.800;2024-01-30T11:27:43;12.57;;;6.18;;
9364;SDS011;4722;49.340;9.800;2024-01-30T11:30:10;9.65;;;5.38;;
9364;SDS011;4722;49.340;9.800;2024-01-30T11:32:36;16.50;;;5.13;;
9364;SDS011;4722;49.340;9.800;2024-01-30T11:35:03;10.30;;;4.85;;
9364;SDS011;4722;49.340;9.800;2024-01-30T11:37:31;11.77;;;5.00;;
9364;SDS011;4722;49.340;9.800;2024-01-30T11:39:57;8.63;;;4.78;;
9364;SDS011;4722;49.340;9.800;2024-01-30T11:42:24;12.07;;;5.00;;
9364;SDS011;4722;49.340;9.800;2024-01-30T11:44:50;10.27;;;4.90;;
9364;SDS011;4722;49.340;9.800;2024-01-30T11:47:16;10.98;;;5.20;;
9364;SDS011;4722;49.340;9.800;2024-01-30T11:49:42;8.70;;;5.18;;
9364;SDS011;4722;49.340;9.800;2024-01-30T11:52:09;11.75;;;5.03;;
9364;SDS011;4722;49.340;9.800;2024-01-30T11:54:35;8.35;;;4.35;;
9364;SDS011;4722;49.340;9.800;2024-01-30T11:57:01;10.10;;;5.22;;
9364;SDS011;4722;49.340;9.800;2024-01-30T11:59:28;11.05;;;5.13;;
9364;SDS011;4722;49.340;9.800;2024-01-30T12:01:54;9.23;;;4.65;;
9364;SDS011;4722;49.340;9.800;2024-01-30T12:04:20;10.57;;;4.72;;
9364;SDS011;4722;49.340;9.800;2024-01-30T12:06:50;7.25;;;4.18;;
9364;SDS011;4722;49.340;9.800;2024-01-30T12:09:16;10.75;;;4.47;;
9364;SDS011;4722;49.340;9.800;2024-01-30T12:11:48;9.02;;;4.38;;
9364;SDS011;4722;49.340;9.800;2024-01-30T12:14:15;10.15;;;5.10;;
9364;SDS011;4722;49.340;9.800;2024-01-30T12:16:42;8.57;;;4.40;;
9364;SDS011;4722;49.340;9.800;2024-01-30T12:19:08;9.77;;;4.85;;
9364;SDS011;4722;49.340;9.800;2024-01-30T12:21:34;7.25;;;4.18;;
9364;SDS011;4722;49.340;9.800;2024-01-30T12:24:01;7.63;;;4.53;;
9364;SDS011;4722;49.340;9.800;2024-01-30T12:26:27;6.28;;;3.95;;
9364;SDS011;4722;49.340;9.800;2024-01-30T12:28:56;7.40;;;4.13;;
9364;SDS011;4722;49.340;9.800;2024-01-30T12:31:26;9.40;;;4.95;;
9364;SDS011;4722;49.340;9.800;2024-01-30T12:33:52;8.15;;;4.50;;
9364;SDS011;4722;49.340;9.800;2024-01-30T12:36:19;9.50;;;4.57;;
9364;SDS011;4722;49.340;9.800;2024-01-30T12:38:44;11.10;;;4.45;;
9364;SDS011;4722;49.340;9.800;2024-01-30T12:41:10;13.48;;;5.32;;
9364;SDS011;4722;49.340;9.800;2024-01-30T12:43:36;11.65;;;5.00;;
9364;SDS011;4722;49.340;9.800;2024-01-30T12:46:02;9.85;;;4.53;;
9364;SDS011;4722;49.340;9.800;2024-01-30T12:48:28;8.90;;;4.40;;
9364;SDS011;4722;49.340;9.800;2024-01-30T12:50:55;8.60;;;4.22;;
9364;SDS011;4722;49.340;9.800;2024-01-30T12:53:21;7.00;;;4.07;;
9364;SDS011;4722;49.340;9.800;2024-01-30T12:55:47;9.43;;;5.68;;
9364;SDS011;4722;49.340;9.800;2024-01-30T12:58:14;12.35;;;4.35;;
9364;SDS011;4722;49.340;9.800;2024-01-30T13:00:40;8.70;;;4.80;;
9364;SDS011;4722;49.340;9.800;2024-01-30T13:03:08;8.25;;;3.70;;
9364;SDS011;4722;49.340;9.800;2024-01-30T13:05:34;7.82;;;4.20;;
9364;SDS011;4722;49.340;9.800;2024-01-30T13:08:00;7.38;;;3.53;;
9364;SDS011;4722;49.340;9.800;2024-01-30T13:10:26;7.85;;;4.05;;
9364;SDS011;4722;49.340;9.800;2024-01-30T13:12:52;7.85;;;4.15;;
9364;SDS011;4722;49.340;9.800;2024-01-30T13:15:18;6.72;;;4.20;;
9364;SDS011;4722;49.340;9.800;2024-01-30T13:17:44;8.90;;;3.70;;
9364;SDS011;4722;49.340;9.800;2024-01-30T13:20:12;10.75;;;4.03;;
9364;SDS011;4722;49.340;9.800;2024-01-30T13:22:41;7.53;;;3.40;;
9364;SDS011;4722;49.340;9.800;2024-01-30T13:25:07;7.40;;;3.83;;
9364;SDS011;4722;49.340;9.800;2024-01-30T13:27:33;7.82;;;3.35;;
9364;SDS011;4722;49.340;9.800;2024-01-30T13:29:59;9.52;;;4.57;;
9364;SDS011;4722;49.340;9.800;2024-01-30T13:32:25;5.22;;;3.58;;
9364;SDS011;4722;49.340;9.800;2024-01-30T13:34:51;10.82;;;3.55;;
9364;SDS011;4722;49.340;9.800;2024-01-30T13:37:17;9.48;;;3.08;;
9364;SDS011;4722;49.340;9.800;2024-01-30T13:39:43;6.90;;;3.83;;
9364;SDS011;4722;49.340;9.800;2024-01-30T13:42:09;8.95;;;3.88;;
9364;SDS011;4722;49.340;9.800;2024-01-30T13:44:35;6.15;;;3.40;;
9364;SDS011;4722;49.340;9.800;2024-01-30T13:47:01;6.80;;;3.85;;
9364;SDS011;4722;49.340;9.800;2024-01-30T13:49:27;8.57;;;2.92;;
9364;SDS011;4722;49.340;9.800;2024-01-30T13:51:53;5.00;;;2.80;;
9364;SDS011;4722;49.340;9.800;2024-01-30T13:54:19;7.68;;;3.30;;
9364;SDS011;4722;49.340;9.800;2024-01-30T13:56:45;4.80;;;2.85;;
9364;SDS011;4722;49.340;9.800;2024-01-30T13:59:11;4.40;;;2.67;;
9364;SDS011;4722;49.340;9.800;2024-01-30T14:01:37;7.28;;;3.17;;
9364;SDS011;4722;49.340;9.800;2024-01-30T14:04:03;7.10;;;3.55;;
9364;SDS011;4722;49.340;9.800;2024-01-30T14:06:29;7.70;;;3.53;;
9364;SDS011;4722;49.340;9.800;2024-01-30T14:08:55;4.05;;;2.15;;
9364;SDS011;4722;49.340;9.800;2024-01-30T14:11:21;4.20;;;2.25;;
9364;SDS011;4722;49.340;9.800;2024-01-30T14:13:47;6.28;;;2.63;;
9364;SDS011;4722;49.340;9.800;2024-01-30T14:16:13;4.55;;;2.28;;
9364;SDS011;4722;49.340;9.800;2024-01-30T14:18:39;4.38;;;1.90;;
9364;SDS011;4722;49.340;9.800;2024-01-30T14:21:06;3.97;;;2.35;;
9364;SDS011;4722;49.340;9.800;2024-01-30T14:23:33;6.75;;;2.85;;
9364;SDS011;4722;49.340;9.800;2024-01-30T14:25:59;5.05;;;2.40;;
9364;SDS011;4722;49.340;9.800;2024-01-30T14:28:25;6.13;;;2.70;;
9364;SDS011;4722;49.340;9.800;2024-01-30T14:30:51;6.78;;;3.13;;
9364;SDS011;4722;49.340;9.800;2024-01-30T14:33:17;5.93;;;2.45;;
9364;SDS011;4722;49.340;9.800;2024-01-30T14:35:43;6.53;;;3.03;;
9364;SDS011;4722;49.340;9.800;2024-01-30T14:38:09;6.63;;;2.85;;
9364;SDS011;4722;49.340;9.800;2024-01-30T14:40:35;3.70;;;1.90;;
9364;SDS011;4722;49.340;9.800;2024-01-30T14:43:01;5.38;;;2.53;;
9364;SDS011;4722;49.340;9.800;2024-01-30T14:45:27;6.57;;;3.28;;
9364;SDS011;4722;49.340;9.800;2024-01-30T14:47:53;5.55;;;2.80;;
9364;SDS011;4722;49.340;9.800;2024-01-30T14:50:20;5.47;;;2.83;;
9364;SDS011;4722;49.340;9.800;2024-01-30T14:52:46;7.78;;;2.80;;
9364;SDS011;4722;49.340;9.800;2024-01-30T14:55:12;7.72;;;3.28;;
9364;SDS011;4722;49.340;9.800;2024-01-30T14:57:38;6.07;;;2.55;;
9364;SDS011;4722;49.340;9.800;2024-01-30T15:00:07;5.35;;;2.20;;
9364;SDS011;4722;49.340;9.800;2024-01-30T15:02:34;5.50;;;2.58;;